createdAt,value
2018-10-11T00:00:00.121Z,61.03
2018-10-11T00:02:28.462Z,59.83
2018-10-11T00:04:56.932Z,55.60
2018-10-11T00:07:26.577Z,56.23
2018-10-11T00:09:55.640Z,62.20
2018-10-11T00:12:24.134Z,66.23
2018-10-11T00:14:52.506Z,59.70
2018-10-11T00:17:20.930Z,66.57
2018-10-11T00:19:49.334Z,81.40
2018-10-11T00:22:17.621Z,59.20
2018-10-11T00:24:46.044Z,65.30
2018-10-11T00:27:14.483Z,72.40
2018-10-11T00:29:42.859Z,60.33
2018-10-11T00:32:11.232Z,87.77
2018-10-11T00:34:39.633Z,72.50
2018-10-11T00:37:08.039Z,68.33
2018-10-11T00:39:36.534Z,73.63
2018-10-11T00:42:05.021Z,74.40
2018-10-11T00:44:33.539Z,84.63
2018-10-11T00:47:01.990Z,70.30
2018-10-11T00:49:30.409Z,65.37
2018-10-11T00:51:58.833Z,69.87
2018-10-11T00:54:27.160Z,70.97
2018-10-11T00:56:55.681Z,76.40
2018-10-11T00:59:24.360Z,77.67
2018-10-11T01:01:52.699Z,68.23
2018-10-11T01:04:21.162Z,68.90
2018-10-11T01:06:49.666Z,64.73
2018-10-11T01:09:18.219Z,71.03
2018-10-11T01:11:46.706Z,81.97
2018-10-11T01:14:15.073Z,70.87
2018-10-11T01:16:43.462Z,79.07
2018-10-11T01:19:11.899Z,64.57
2018-10-11T01:21:40.360Z,60.43
2018-10-11T01:24:09.402Z,73.73
2018-10-11T01:26:37.830Z,76.07
2018-10-11T01:29:06.214Z,61.90
2018-10-11T01:31:34.693Z,57.10
2018-10-11T01:34:03.172Z,66.80
2018-10-11T01:36:31.578Z,64.13
2018-10-11T01:39:00.004Z,60.60
2018-10-11T01:41:28.667Z,59.00
2018-10-11T01:43:57.036Z,58.27
2018-10-11T01:46:25.379Z,61.27
2018-10-11T01:48:53.757Z,63.13
2018-10-11T01:51:22.155Z,70.10
2018-10-11T01:53:50.589Z,70.33
2018-10-11T01:56:18.978Z,69.57
2018-10-11T01:58:48.079Z,66.13
2018-10-11T02:01:16.525Z,65.10
2018-10-11T02:03:45.194Z,65.63
2018-10-11T02:06:13.691Z,66.43
2018-10-11T02:08:42.102Z,93.73
2018-10-11T02:11:10.426Z,93.50
2018-10-11T02:13:38.864Z,82.27
2018-10-11T02:16:07.198Z,83.60
2018-10-11T02:18:35.563Z,65.97
2018-10-11T02:21:03.992Z,81.13
2018-10-11T02:23:32.606Z,85.03
2018-10-11T02:26:01.044Z,80.53
2018-10-11T02:28:29.458Z,83.83
2018-10-11T02:30:57.998Z,73.27
2018-10-11T02:33:26.393Z,66.87
2018-10-11T02:35:55.029Z,66.17
2018-10-11T02:38:23.525Z,68.47
2018-10-11T02:40:52.980Z,63.17
2018-10-11T02:43:21.393Z,64.13
2018-10-11T02:45:49.726Z,54.03
2018-10-11T02:48:18.206Z,58.77
2018-10-11T02:50:46.606Z,57.07
2018-10-11T02:53:15.033Z,54.83
2018-10-11T02:55:43.532Z,54.17
2018-10-11T02:58:20.882Z,54.27
2018-10-11T03:00:49.254Z,56.87
2018-10-11T03:03:21.028Z,43.47
2018-10-11T03:05:49.394Z,53.17
2018-10-11T03:08:19.865Z,54.63
2018-10-11T03:10:48.856Z,54.13
2018-10-11T03:13:17.218Z,46.07
2018-10-11T03:15:45.654Z,57.53
2018-10-11T03:18:14.597Z,46.27
2018-10-11T03:20:44.293Z,57.53
2018-10-11T03:23:13.619Z,51.07
2018-10-11T03:25:43.194Z,77.17
2018-10-11T03:28:13.025Z,49.83
2018-10-11T03:30:41.716Z,54.30
2018-10-11T03:33:10.514Z,63.30
2018-10-11T03:35:39.185Z,52.43
2018-10-11T03:38:07.595Z,69.10
2018-10-11T03:40:36.106Z,56.50
2018-10-11T03:43:04.514Z,65.33
2018-10-11T03:45:33.018Z,56.67
2018-10-11T03:48:01.335Z,57.17
2018-10-11T03:50:29.686Z,58.33
2018-10-11T03:52:58.657Z,56.23
2018-10-11T03:55:27.814Z,56.87
2018-10-11T03:57:56.564Z,62.10
2018-10-11T04:00:25.491Z,59.27
2018-10-11T04:02:53.844Z,68.80
2018-10-11T04:05:22.279Z,59.03
2018-10-11T04:07:50.916Z,60.83
2018-10-11T04:10:19.514Z,60.70
2018-10-11T04:12:47.937Z,62.10
2018-10-11T04:15:16.241Z,65.47
2018-10-11T04:17:44.665Z,68.87
2018-10-11T04:20:13.027Z,67.60
2018-10-11T04:22:42.106Z,71.73
2018-10-11T04:25:10.544Z,63.93
2018-10-11T04:27:38.968Z,66.47
2018-10-11T04:30:07.728Z,61.40
2018-10-11T04:32:36.298Z,58.37
2018-10-11T04:35:04.748Z,75.47
2018-10-11T04:37:33.348Z,67.27
2018-10-11T04:40:01.819Z,66.87
2018-10-11T04:42:30.639Z,67.70
2018-10-11T04:44:59.410Z,68.57
2018-10-11T04:47:27.891Z,70.83
2018-10-11T04:49:56.399Z,79.07
2018-10-11T04:52:25.078Z,77.10
2018-10-11T04:54:53.583Z,83.40
2018-10-11T04:57:22.007Z,74.97
2018-10-11T04:59:50.723Z,76.07
2018-10-11T05:02:19.096Z,81.07
2018-10-11T05:04:47.598Z,74.20
2018-10-11T05:07:16.183Z,75.33
2018-10-11T05:09:44.903Z,71.10
2018-10-11T05:12:13.339Z,74.57
2018-10-11T05:14:41.791Z,67.87
2018-10-11T05:17:10.559Z,96.13
2018-10-11T05:19:39.661Z,77.43
2018-10-11T05:22:08.070Z,68.27
2018-10-11T05:24:36.454Z,65.10
2018-10-11T05:27:04.938Z,74.03
2018-10-11T05:29:33.388Z,67.23
2018-10-11T05:32:01.909Z,70.50
2018-10-11T05:34:30.384Z,73.17
2018-10-11T05:37:00.008Z,70.83
2018-10-11T05:39:28.372Z,77.87
2018-10-11T05:41:56.942Z,75.07
2018-10-11T05:44:25.330Z,74.77
2018-10-11T05:46:53.851Z,72.57
2018-10-11T05:49:23.134Z,76.43
2018-10-11T05:51:52.100Z,73.70
2018-10-11T05:54:20.962Z,73.87
2018-10-11T05:56:50.233Z,72.53
2018-10-11T05:59:18.637Z,69.03
2018-10-11T06:01:47.243Z,82.23
2018-10-11T06:04:15.685Z,74.37
2018-10-11T06:06:45.486Z,82.43
2018-10-11T06:09:13.863Z,92.80
2018-10-11T06:11:42.495Z,75.20
2018-10-11T06:14:11.370Z,74.83
2018-10-11T06:16:39.888Z,81.53
2018-10-11T06:19:08.277Z,57.73
2018-10-11T06:21:37.256Z,54.33
2018-10-11T06:24:05.668Z,54.07
2018-10-11T06:26:34.023Z,58.80
2018-10-11T06:29:02.484Z,55.40
2018-10-11T06:31:30.920Z,47.10
2018-10-11T06:33:59.356Z,49.50
2018-10-11T06:36:28.071Z,49.20
2018-10-11T06:38:57.471Z,49.90
2018-10-11T06:41:26.697Z,52.70
2018-10-11T06:43:55.086Z,53.70
2018-10-11T06:46:23.549Z,45.20
2018-10-11T06:48:52.320Z,49.53
2018-10-11T06:51:20.823Z,40.13
2018-10-11T06:53:50.553Z,44.50
2018-10-11T06:56:19.103Z,42.33
2018-10-11T06:58:47.550Z,51.37
2018-10-11T07:01:15.929Z,44.57
2018-10-11T07:03:44.332Z,36.23
2018-10-11T07:06:12.808Z,32.37
2018-10-11T07:08:41.940Z,42.53
2018-10-11T07:11:10.494Z,29.63
2018-10-11T07:13:38.949Z,38.17
2018-10-11T07:16:07.458Z,36.30
2018-10-11T07:18:35.882Z,37.10
2018-10-11T07:21:04.348Z,43.57
2018-10-11T07:23:32.840Z,32.23
2018-10-11T07:26:01.388Z,37.20
2018-10-11T07:28:31.536Z,38.80
2018-10-11T07:31:00.104Z,31.17
2018-10-11T07:33:28.487Z,35.33
2018-10-11T07:35:57.179Z,33.03
2018-10-11T07:38:25.593Z,30.93
2018-10-11T07:40:54.387Z,30.87
2018-10-11T07:43:22.889Z,38.03
2018-10-11T07:45:52.169Z,32.23
2018-10-11T07:48:20.666Z,27.23
2018-10-11T07:50:49.307Z,25.93
2018-10-11T07:53:17.903Z,32.17
2018-10-11T07:55:46.362Z,24.90
2018-10-11T07:58:14.939Z,32.10
2018-10-11T08:00:43.375Z,33.83
2018-10-11T08:03:11.800Z,32.50
2018-10-11T08:05:40.253Z,31.07
2018-10-11T08:08:09.025Z,27.67
2018-10-11T08:10:37.558Z,24.53
2018-10-11T08:13:06.168Z,24.93
2018-10-11T08:15:34.662Z,23.00
2018-10-11T08:18:03.291Z,24.30
2018-10-11T08:20:31.614Z,21.90
2018-10-11T08:23:02.172Z,33.67
2018-10-11T08:25:30.840Z,23.00
2018-10-11T08:27:58.939Z,17.67
2018-10-11T08:30:27.625Z,19.30
2018-10-11T08:32:56.091Z,21.33
2018-10-11T08:35:24.615Z,25.17
2018-10-11T08:37:53.267Z,16.90
2018-10-11T08:40:21.741Z,19.83
2018-10-11T08:42:51.112Z,24.20
2018-10-11T08:45:19.738Z,27.40
2018-10-11T08:47:48.315Z,16.87
2018-10-11T08:50:16.974Z,17.60
2018-10-11T08:52:45.543Z,15.83
2018-10-11T08:55:14.056Z,19.23
2018-10-11T08:57:42.535Z,25.87
2018-10-11T09:00:11.107Z,18.33
2018-10-11T09:02:39.597Z,16.83
2018-10-11T09:05:08.248Z,15.17
2018-10-11T09:07:36.717Z,16.83
2018-10-11T09:10:08.786Z,17.17
2018-10-11T09:12:37.480Z,15.77
2018-10-11T09:15:07.605Z,17.60
2018-10-11T09:17:36.198Z,16.83
2018-10-11T09:20:05.058Z,15.50
2018-10-11T09:22:34.297Z,14.70
2018-10-11T09:25:02.723Z,15.27
2018-10-11T09:27:31.463Z,15.00
2018-10-11T09:29:59.943Z,18.33
2018-10-11T09:32:28.506Z,17.60
2018-10-11T09:34:56.835Z,16.23
2018-10-11T09:37:25.326Z,15.60
2018-10-11T09:39:53.911Z,16.13
2018-10-11T09:42:22.493Z,15.87
2018-10-11T09:44:51.126Z,18.23
2018-10-11T09:47:20.139Z,17.13
2018-10-11T09:49:48.846Z,19.27
2018-10-11T09:52:17.466Z,16.13
2018-10-11T09:54:46.085Z,13.83
2018-10-11T09:57:17.583Z,18.77
2018-10-11T09:59:46.132Z,13.37
2018-10-11T10:02:15.006Z,14.17
2018-10-11T10:04:45.951Z,14.20
2018-10-11T10:07:14.625Z,18.20
2018-10-11T10:09:43.798Z,13.80
2018-10-11T10:12:12.726Z,13.30
2018-10-11T10:14:42.093Z,13.20
2018-10-11T10:17:11.000Z,15.10
2018-10-11T10:19:40.896Z,13.43
2018-10-11T10:22:10.470Z,13.40
2018-10-11T10:24:38.974Z,13.20
2018-10-11T10:27:07.482Z,10.87
2018-10-11T10:29:36.059Z,13.50
2018-10-11T10:32:05.567Z,12.63
2018-10-11T10:34:34.052Z,12.83
2018-10-11T10:37:03.409Z,11.50
2018-10-11T10:39:32.084Z,12.77
2018-10-11T10:42:00.769Z,10.77
2018-10-11T10:44:29.212Z,12.13
2018-10-11T10:46:58.129Z,10.33
2018-10-11T10:49:27.058Z,10.40
2018-10-11T10:51:56.189Z,10.00
2018-10-11T10:54:29.232Z,12.80
2018-10-11T10:56:58.408Z,7.70
2018-10-11T10:59:27.044Z,8.43
2018-10-11T11:01:56.752Z,8.23
2018-10-11T11:04:25.389Z,8.13
2018-10-11T11:06:54.138Z,8.23
2018-10-11T11:09:23.000Z,8.37
2018-10-11T11:11:54.589Z,8.37
2018-10-11T11:14:23.337Z,8.40
2018-10-11T11:16:51.788Z,12.20
2018-10-11T11:19:20.402Z,13.33
2018-10-11T11:21:49.501Z,7.97
2018-10-11T11:24:17.992Z,8.33
2018-10-11T11:26:46.899Z,8.07
2018-10-11T11:29:15.721Z,6.50
2018-10-11T11:31:44.249Z,6.90
2018-10-11T11:34:16.108Z,7.80
2018-10-11T11:36:46.981Z,6.27
2018-10-11T11:39:15.787Z,7.27
2018-10-11T11:41:46.407Z,17.87
2018-10-11T11:44:15.281Z,6.30
2018-10-11T11:46:45.064Z,7.43
2018-10-11T11:49:13.681Z,6.60
2018-10-11T11:51:43.986Z,5.80
2018-10-11T11:54:17.476Z,6.87
2018-10-11T11:56:46.618Z,8.83
2018-10-11T11:59:15.175Z,7.13
2018-10-11T12:01:44.542Z,5.80
2018-10-11T12:04:16.317Z,6.60
2018-10-11T12:06:45.425Z,6.87
2018-10-11T12:09:15.885Z,6.03
2018-10-11T12:11:44.471Z,6.13
2018-10-11T12:14:13.645Z,5.60
2018-10-11T12:16:42.396Z,6.73
2018-10-11T12:19:12.089Z,6.13
2018-10-11T12:21:41.322Z,5.90
2018-10-11T12:24:10.826Z,5.37
2018-10-11T12:26:39.249Z,4.80
2018-10-11T12:29:08.451Z,10.63
2018-10-11T12:31:37.365Z,4.87
2018-10-11T12:34:06.106Z,5.93
2018-10-11T12:36:34.640Z,5.50
2018-10-11T12:39:05.439Z,5.70
2018-10-11T12:41:36.068Z,5.43
2018-10-11T12:44:05.465Z,5.80
2018-10-11T12:46:36.890Z,6.10
2018-10-11T12:49:02.405Z,7.00
2018-10-11T12:51:30.909Z,6.60
2018-10-11T12:53:59.441Z,5.80
2018-10-11T12:56:28.004Z,7.00
2018-10-11T12:58:59.053Z,6.63
2018-10-11T13:01:29.249Z,5.30
2018-10-11T13:03:58.145Z,5.80
2018-10-11T13:06:26.993Z,5.73
2018-10-11T13:08:55.446Z,5.90
2018-10-11T13:11:29.062Z,8.13
2018-10-11T13:13:59.385Z,10.70
2018-10-11T13:16:28.395Z,4.40
2018-10-11T13:18:57.547Z,5.60
2018-10-11T13:21:26.661Z,5.23
2018-10-11T13:23:55.188Z,5.33
2018-10-11T13:26:23.884Z,4.87
2018-10-11T13:28:53.743Z,4.63
2018-10-11T13:31:22.455Z,4.87
2018-10-11T13:33:52.998Z,3.90
2018-10-11T13:36:21.841Z,4.53
2018-10-11T13:38:50.813Z,4.27
2018-10-11T13:41:22.911Z,5.73
2018-10-11T13:43:54.256Z,4.00
2018-10-11T13:46:22.836Z,3.83
2018-10-11T13:48:51.288Z,4.23
2018-10-11T13:51:19.764Z,4.53
2018-10-11T13:53:55.481Z,4.70
2018-10-11T13:56:17.987Z,4.70
2018-10-11T13:58:46.592Z,3.73
2018-10-11T14:01:15.050Z,3.63
2018-10-11T14:03:43.850Z,3.90
2018-10-11T14:06:12.977Z,5.00
2018-10-11T14:08:41.466Z,4.87
2018-10-11T14:11:10.181Z,8.03
2018-10-11T14:13:39.425Z,5.87
2018-10-11T14:16:15.866Z,5.50
2018-10-11T14:18:44.400Z,3.23
2018-10-11T14:21:12.888Z,4.23
2018-10-11T14:23:41.418Z,3.47
2018-10-11T14:26:09.763Z,3.87
2018-10-11T14:28:38.498Z,4.20
2018-10-11T14:31:07.266Z,4.83
2018-10-11T14:33:35.784Z,5.53
2018-10-11T14:36:04.220Z,5.23
2018-10-11T14:38:32.950Z,5.73
2018-10-11T14:41:02.369Z,6.10
2018-10-11T14:43:30.948Z,5.90
2018-10-11T14:45:59.463Z,8.17
2018-10-11T14:48:28.165Z,7.97
2018-10-11T14:50:56.763Z,5.87
2018-10-11T14:53:25.152Z,5.97
2018-10-11T14:55:53.684Z,6.73
2018-10-11T14:58:23.347Z,6.03
2018-10-11T15:00:51.935Z,6.63
2018-10-11T15:03:20.761Z,4.57
2018-10-11T15:05:49.368Z,5.23
2018-10-11T15:08:17.812Z,5.20
2018-10-11T15:10:46.965Z,5.23
2018-10-11T15:13:15.620Z,5.63
2018-10-11T15:15:44.368Z,13.27
2018-10-11T15:18:12.769Z,6.63
2018-10-11T15:20:41.391Z,6.07
2018-10-11T15:23:09.776Z,6.63
2018-10-11T15:25:38.791Z,6.50
2018-10-11T15:28:09.547Z,7.07
2018-10-11T15:30:40.027Z,6.93
2018-10-11T15:33:09.475Z,6.77
2018-10-11T15:35:46.332Z,7.73
2018-10-11T15:38:15.800Z,7.27
2018-10-11T15:40:44.484Z,7.80
2018-10-11T15:43:14.320Z,7.00
2018-10-11T15:45:42.728Z,7.53
2018-10-11T15:48:11.245Z,9.50
2018-10-11T15:50:42.683Z,7.13
2018-10-11T15:53:11.151Z,8.30
2018-10-11T15:55:40.270Z,7.00
2018-10-11T15:58:08.708Z,8.73
2018-10-11T16:00:37.387Z,7.27
2018-10-11T16:03:05.857Z,8.03
2018-10-11T16:05:34.362Z,11.90
2018-10-11T16:08:03.187Z,7.47
2018-10-11T16:10:31.798Z,8.40
2018-10-11T16:13:00.461Z,8.07
2018-10-11T16:15:29.043Z,9.60
2018-10-11T16:17:57.621Z,19.77
2018-10-11T16:20:26.963Z,7.03
2018-10-11T16:22:56.414Z,14.80
2018-10-11T16:25:24.816Z,10.23
2018-10-11T16:27:53.380Z,7.87
2018-10-11T16:30:22.932Z,7.30
2018-10-11T16:32:51.492Z,7.90
2018-10-11T16:35:21.372Z,13.43
2018-10-11T16:37:49.874Z,7.43
2018-10-11T16:40:18.610Z,7.67
2018-10-11T16:42:47.380Z,13.43
2018-10-11T16:45:16.745Z,12.30
2018-10-11T16:47:46.049Z,9.73
2018-10-11T16:50:14.783Z,8.90
2018-10-11T16:52:44.016Z,8.17
2018-10-11T16:55:13.496Z,12.23
2018-10-11T16:57:42.920Z,9.00
2018-10-11T17:00:11.492Z,15.17
2018-10-11T17:02:40.305Z,8.90
2018-10-11T17:05:08.884Z,10.13
2018-10-11T17:07:37.433Z,14.93
2018-10-11T17:10:06.308Z,8.27
2018-10-11T17:12:34.726Z,9.07
2018-10-11T17:15:03.534Z,14.07
2018-10-11T17:17:32.138Z,12.80
2018-10-11T17:20:01.062Z,8.77
2018-10-11T17:25:51.194Z,12.83
2018-10-11T17:28:19.580Z,8.77
2018-10-11T17:30:50.114Z,9.17
2018-10-11T17:33:18.602Z,19.10
2018-10-11T17:35:47.304Z,15.17
2018-10-11T17:38:15.725Z,9.90
2018-10-11T17:40:44.323Z,10.17
2018-10-11T17:43:12.819Z,12.13
2018-10-11T17:45:41.403Z,12.40
2018-10-11T17:48:10.398Z,9.20
2018-10-11T17:50:38.931Z,10.93
2018-10-11T17:53:07.520Z,9.43
2018-10-11T17:55:36.160Z,11.00
2018-10-11T17:58:04.749Z,9.63
2018-10-11T18:00:34.412Z,9.83
2018-10-11T18:03:04.069Z,16.30
2018-10-11T18:05:32.689Z,11.60
2018-10-11T18:08:03.218Z,8.70
2018-10-11T18:10:31.757Z,11.57
2018-10-11T18:13:00.916Z,21.13
2018-10-11T18:15:29.353Z,14.47
2018-10-11T18:17:57.930Z,12.20
2018-10-11T18:20:26.398Z,13.00
2018-10-11T18:22:56.183Z,17.77
2018-10-11T18:25:25.626Z,12.30
2018-10-11T18:27:58.660Z,18.73
2018-10-11T18:30:29.654Z,13.73
2018-10-11T18:32:58.720Z,12.93
2018-10-11T18:35:27.762Z,14.13
2018-10-11T18:37:56.308Z,14.40
2018-10-11T18:40:24.711Z,13.30
2018-10-11T18:42:53.429Z,16.40
2018-10-11T18:45:21.874Z,15.70
2018-10-11T18:47:51.681Z,20.03
2018-10-11T18:50:20.987Z,17.90
2018-10-11T18:52:49.555Z,15.87
2018-10-11T18:55:19.319Z,23.00
2018-10-11T18:57:48.026Z,13.17
2018-10-11T19:00:17.143Z,16.33
2018-10-11T19:02:46.320Z,23.27
2018-10-11T19:05:15.044Z,17.90
2018-10-11T19:07:43.687Z,25.93
2018-10-11T19:10:12.284Z,15.57
2018-10-11T19:12:40.793Z,18.10
2018-10-11T19:15:09.238Z,21.00
2018-10-11T19:17:37.764Z,18.77
2018-10-11T19:20:06.393Z,27.50
2018-10-11T19:22:37.392Z,20.73
2018-10-11T19:25:05.980Z,16.77
2018-10-11T19:27:34.456Z,16.23
2018-10-11T19:30:03.747Z,23.83
2018-10-11T19:32:32.338Z,20.47
2018-10-11T19:35:00.962Z,21.50
2018-10-11T19:37:29.327Z,29.03
2018-10-11T19:39:58.183Z,26.23
2018-10-11T19:42:26.746Z,19.90
2018-10-11T19:44:56.326Z,19.53
2018-10-11T19:47:24.984Z,21.17
2018-10-11T19:49:53.541Z,30.43
2018-10-11T19:52:22.321Z,23.53
2018-10-11T19:54:50.636Z,18.00
2018-10-11T19:57:20.353Z,19.90
2018-10-11T19:59:49.340Z,19.17
2018-10-11T20:02:18.134Z,24.47
2018-10-11T20:04:46.664Z,22.70
2018-10-11T20:07:15.154Z,24.47
2018-10-11T20:09:45.236Z,19.27
2018-10-11T20:12:13.822Z,18.37
2018-10-11T20:14:42.275Z,22.57
2018-10-11T20:17:14.065Z,16.60
2018-10-11T20:19:43.202Z,17.23
2018-10-11T20:22:12.987Z,16.07
2018-10-11T20:24:42.441Z,19.50
2018-10-11T20:27:11.223Z,17.33
2018-10-11T20:29:40.540Z,31.03
2018-10-11T20:32:09.612Z,17.23
2018-10-11T20:34:38.064Z,20.77
2018-10-11T20:37:06.800Z,18.40
2018-10-11T20:39:35.159Z,17.10
2018-10-11T20:42:03.778Z,21.43
2018-10-11T20:44:32.223Z,22.83
2018-10-11T20:47:00.666Z,23.50
2018-10-11T20:49:29.204Z,22.83
2018-10-11T20:51:57.795Z,22.93
2018-10-11T20:54:26.298Z,19.40
2018-10-11T20:56:54.903Z,18.70
2018-10-11T20:59:24.298Z,29.13
2018-10-11T21:01:52.784Z,28.23
2018-10-11T21:04:21.314Z,27.87
2018-10-11T21:06:50.194Z,15.40
2018-10-11T21:09:18.552Z,26.50
2018-10-11T21:11:47.226Z,18.37
2018-10-11T21:14:16.031Z,17.10
2018-10-11T21:16:44.482Z,18.47
2018-10-11T21:19:12.937Z,18.03
2018-10-11T21:21:41.342Z,21.63
2018-10-11T21:24:09.765Z,15.90
2018-10-11T21:26:38.129Z,16.77
2018-10-11T21:29:06.521Z,16.60
2018-10-11T21:31:35.230Z,17.30
2018-10-11T21:34:03.651Z,24.20
2018-10-11T21:36:33.375Z,16.13
2018-10-11T21:39:01.889Z,18.70
2018-10-11T21:41:30.366Z,18.57
2018-10-11T21:43:58.890Z,16.93
2018-10-11T21:46:27.325Z,24.30
2018-10-11T21:48:55.756Z,21.87
2018-10-11T21:51:24.171Z,17.97
2018-10-11T21:53:52.906Z,22.30
2018-10-11T21:56:21.284Z,20.90
2018-10-11T21:58:49.768Z,17.57
2018-10-11T22:01:22.456Z,17.60
2018-10-11T22:03:51.325Z,17.43
2018-10-11T22:06:19.830Z,21.87
2018-10-11T22:08:48.195Z,24.03
2018-10-11T22:11:16.491Z,21.23
2018-10-11T22:13:45.225Z,17.87
2018-10-11T22:16:13.704Z,21.70
2018-10-11T22:18:42.340Z,21.80
2018-10-11T22:21:11.704Z,29.40
2018-10-11T22:23:41.414Z,21.60
2018-10-11T22:26:10.126Z,17.13
2018-10-11T22:28:38.874Z,23.00
2018-10-11T22:31:08.435Z,23.97
2018-10-11T22:33:36.805Z,20.80
2018-10-11T22:36:05.932Z,23.83
2018-10-11T22:38:34.337Z,17.53
2018-10-11T22:41:02.820Z,19.37
2018-10-11T22:43:31.082Z,18.20
2018-10-11T22:45:59.465Z,17.00
2018-10-11T22:48:27.945Z,16.67
2018-10-11T22:50:56.373Z,18.50
2018-10-11T22:53:24.779Z,16.77
2018-10-11T22:55:53.163Z,17.60
2018-10-11T22:58:21.584Z,16.40
2018-10-11T23:00:50.090Z,16.17
2018-10-11T23:03:18.476Z,15.20
2018-10-11T23:05:47.069Z,15.90
2018-10-11T23:08:15.680Z,19.53
2018-10-11T23:10:44.176Z,16.23
2018-10-11T23:13:12.603Z,19.23
2018-10-11T23:15:40.972Z,16.33
2018-10-11T23:18:09.418Z,17.17
2018-10-11T23:20:37.799Z,17.33
2018-10-11T23:23:06.205Z,15.50
2018-10-11T23:25:34.543Z,15.87
2018-10-11T23:28:03.019Z,19.00
2018-10-11T23:30:31.519Z,18.30
2018-10-11T23:32:59.863Z,17.40
2018-10-11T23:35:28.285Z,17.00
2018-10-11T23:37:56.705Z,22.13
2018-10-11T23:40:25.089Z,22.43
2018-10-11T23:42:53.403Z,16.63
2018-10-11T23:45:21.827Z,16.60
2018-10-11T23:47:50.153Z,16.10
2018-10-11T23:50:18.612Z,15.07
2018-10-11T23:52:47.017Z,15.80
2018-10-11T23:55:15.401Z,16.63
2018-10-11T23:57:43.804Z,22.40
